sensor_id;sensor_type;location;lat;lon;timestamp;P1;durP1;ratioP1;P2;durP2;ratioP2
60724;SDS011;59881;36.722;-4.462;2024-01-10T00:01:34;1.45;;;1.00;;
60724;SDS011;59881;36.722;-4.462;2024-01-10T00:03:59;7.55;;;1.30;;
60724;SDS011;59881;36.722;-4.462;2024-01-10T00:06:25;2.90;;;1.50;;
60724;SDS011;59881;36.722;-4.462;2024-01-10T00:08:51;2.60;;;1.15;;
60724;SDS011;59881;36.722;-4.462;2024-01-10T00:11:16;5.20;;;1.38;;
60724;SDS011;59881;36.722;-4.462;2024-01-10T00:13:42;0.50;;;0.50;;
60724;SDS011;59881;36.722;-4.462;2024-01-10T00:16:08;2.90;;;1.30;;
60724;SDS011;59881;36.722;-4.462;2024-01-10T00:18:36;2.30;;;1.27;;
60724;SDS011;59881;36.722;-4.462;2024-01-10T00:21:02;0.95;;;0.70;;
60724;SDS011;59881;36.722;-4.462;2024-01-10T00:23:28;1.70;;;0.90;;
60724;SDS011;59881;36.722;-4.462;2024-01-10T00:25:53;1.30;;;0.80;;
60724;SDS011;59881;36.722;-4.462;2024-01-10T00:28:19;0.68;;;0.55;;
60724;SDS011;59881;36.722;-4.462;2024-01-10T00:30:45;2.08;;;1.30;;
60724;SDS011;59881;36.722;-4.462;2024-01-10T00:33:13;3.25;;;1.42;;
60724;SDS011;59881;36.722;-4.462;2024-01-10T00:35:39;1.30;;;1.02;;
60724;SDS011;59881;36.722;-4.462;2024-01-10T00:38:04;1.00;;;0.90;;
60724;SDS011;59881;36.722;-4.462;2024-01-10T00:40:30;1.83;;;1.35;;
60724;SDS011;59881;36.722;-4.462;2024-01-10T00:42:55;1.25;;;0.88;;
60724;SDS011;59881;36.722;-4.462;2024-01-10T00:45:21;1.55;;;1.27;;
60724;SDS011;59881;36.722;-4.462;2024-01-10T00:47:49;1.02;;;0.80;;
60724;SDS011;59881;36.722;-4.462;2024-01-10T00:50:15;1.10;;;0.80;;
60724;SDS011;59881;36.722;-4.462;2024-01-10T00:52:42;2.05;;;1.20;;
60724;SDS011;59881;36.722;-4.462;2024-01-10T00:55:10;0.90;;;0.77;;
60724;SDS011;59881;36.722;-4.462;2024-01-10T00:57:36;1.65;;;1.15;;
60724;SDS011;59881;36.722;-4.462;2024-01-10T01:00:06;1.15;;;0.88;;
60724;SDS011;59881;36.722;-4.462;2024-01-10T01:02:34;14.20;;;1.50;;
60724;SDS011;59881;36.722;-4.462;2024-01-10T01:05:00;0.95;;;0.80;;
60724;SDS011;59881;36.722;-4.462;2024-01-10T01:07:26;3.78;;;1.35;;
60724;SDS011;59881;36.722;-4.462;2024-01-10T01:09:52;0.52;;;0.52;;
60724;SDS011;59881;36.722;-4.462;2024-01-10T01:12:17;4.03;;;1.30;;
60724;SDS011;59881;36.722;-4.462;2024-01-10T01:14:43;3.22;;;1.35;;
60724;SDS011;59881;36.722;-4.462;2024-01-10T01:17:09;1.35;;;0.85;;
60724;SDS011;59881;36.722;-4.462;2024-01-10T01:19:34;1.00;;;0.85;;
60724;SDS011;59881;36.722;-4.462;2024-01-10T01:22:00;4.85;;;1.30;;
60724;SDS011;59881;36.722;-4.462;2024-01-10T01:24:26;1.02;;;0.90;;
60724;SDS011;59881;36.722;-4.462;2024-01-10T01:26:51;2.28;;;1.38;;
60724;SDS011;59881;36.722;-4.462;2024-01-10T01:29:17;3.15;;;1.02;;
60724;SDS011;59881;36.722;-4.462;2024-01-10T01:31:43;1.10;;;0.63;;
60724;SDS011;59881;36.722;-4.462;2024-01-10T01:34:08;1.50;;;1.00;;
60724;SDS011;59881;36.722;-4.462;2024-01-10T01:36:34;1.17;;;1.05;;
60724;SDS011;59881;36.722;-4.462;2024-01-10T01:38:59;1.65;;;1.50;;
60724;SDS011;59881;36.722;-4.462;2024-01-10T01:41:25;1.88;;;1.23;;
60724;SDS011;59881;36.722;-4.462;2024-01-10T01:43:51;1.60;;;1.27;;
60724;SDS011;59881;36.722;-4.462;2024-01-10T01:46:17;1.55;;;1.05;;
60724;SDS011;59881;36.722;-4.462;2024-01-10T01:48:43;1.15;;;0.95;;
60724;SDS011;59881;36.722;-4.462;2024-01-10T01:51:09;0.73;;;0.60;;
60724;SDS011;59881;36.722;-4.462;2024-01-10T01:53:36;4.10;;;0.88;;
60724;SDS011;59881;36.722;-4.462;2024-01-10T01:56:05;1.60;;;1.15;;
60724;SDS011;59881;36.722;-4.462;2024-01-10T01:58:32;1.33;;;0.90;;
60724;SDS011;59881;36.722;-4.462;2024-01-10T02:00:59;3.17;;;1.58;;
60724;SDS011;59881;36.722;-4.462;2024-01-10T02:03:26;3.55;;;1.48;;
60724;SDS011;59881;36.722;-4.462;2024-01-10T02:05:51;2.60;;;0.93;;
60724;SDS011;59881;36.722;-4.462;2024-01-10T02:08:18;3.33;;;1.25;;
60724;SDS011;59881;36.722;-4.462;2024-01-10T02:10:44;1.77;;;1.00;;
60724;SDS011;59881;36.722;-4.462;2024-01-10T02:13:09;1.00;;;0.77;;
60724;SDS011;59881;36.722;-4.462;2024-01-10T02:15:37;1.70;;;0.95;;
60724;SDS011;59881;36.722;-4.462;2024-01-10T02:18:03;2.45;;;1.23;;
60724;SDS011;59881;36.722;-4.462;2024-01-10T02:20:30;1.42;;;0.80;;
60724;SDS011;59881;36.722;-4.462;2024-01-10T02:22:56;1.65;;;1.30;;
60724;SDS011;59881;36.722;-4.462;2024-01-10T02:25:22;1.00;;;0.90;;
60724;SDS011;59881;36.722;-4.462;2024-01-10T02:27:48;1.17;;;1.02;;
60724;SDS011;59881;36.722;-4.462;2024-01-10T02:30:13;1.52;;;0.80;;
60724;SDS011;59881;36.722;-4.462;2024-01-10T02:32:39;0.80;;;0.65;;
60724;SDS011;59881;36.722;-4.462;2024-01-10T02:35:05;0.80;;;0.80;;
60724;SDS011;59881;36.722;-4.462;2024-01-10T02:37:31;3.55;;;1.13;;
60724;SDS011;59881;36.722;-4.462;2024-01-10T02:39:57;4.47;;;1.08;;
60724;SDS011;59881;36.722;-4.462;2024-01-10T02:42:23;1.08;;;0.95;;
60724;SDS011;59881;36.722;-4.462;2024-01-10T02:44:48;0.85;;;0.75;;
60724;SDS011;59881;36.722;-4.462;2024-01-10T02:47:14;1.55;;;1.17;;
60724;SDS011;59881;36.722;-4.462;2024-01-10T02:49:40;1.98;;;1.20;;
60724;SDS011;59881;36.722;-4.462;2024-01-10T02:52:05;0.75;;;0.75;;
60724;SDS011;59881;36.722;-4.462;2024-01-10T02:54:31;2.72;;;1.05;;
60724;SDS011;59881;36.722;-4.462;2024-01-10T02:56:57;3.60;;;1.27;;
60724;SDS011;59881;36.722;-4.462;2024-01-10T02:59:22;0.73;;;0.68;;
60724;SDS011;59881;36.722;-4.462;2024-01-10T03:01:48;1.63;;;1.40;;
60724;SDS011;59881;36.722;-4.462;2024-01-10T03:04:14;3.22;;;1.58;;
60724;SDS011;59881;36.722;-4.462;2024-01-10T03:06:39;2.53;;;1.10;;
60724;SDS011;59881;36.722;-4.462;2024-01-10T03:09:05;1.05;;;0.93;;
60724;SDS011;59881;36.722;-4.462;2024-01-10T03:11:31;3.63;;;1.00;;
60724;SDS011;59881;36.722;-4.462;2024-01-10T03:14:08;1.75;;;0.45;;
60724;SDS011;59881;36.722;-4.462;2024-01-10T03:16:35;1.45;;;1.05;;
60724;SDS011;59881;36.722;-4.462;2024-01-10T03:19:01;1.02;;;0.52;;
60724;SDS011;59881;36.722;-4.462;2024-01-10T03:21:27;2.50;;;1.25;;
60724;SDS011;59881;36.722;-4.462;2024-01-10T03:23:56;1.20;;;0.88;;
60724;SDS011;59881;36.722;-4.462;2024-01-10T03:26:23;1.40;;;0.95;;
60724;SDS011;59881;36.722;-4.462;2024-01-10T03:28:50;1.45;;;0.98;;
60724;SDS011;59881;36.722;-4.462;2024-01-10T03:31:16;1.70;;;1.02;;
60724;SDS011;59881;36.722;-4.462;2024-01-10T03:33:42;1.73;;;1.25;;
60724;SDS011;59881;36.722;-4.462;2024-01-10T03:36:15;2.55;;;0.93;;
60724;SDS011;59881;36.722;-4.462;2024-01-10T03:41:14;0.90;;;0.60;;
60724;SDS011;59881;36.722;-4.462;2024-01-10T03:43:41;1.60;;;0.93;;
60724;SDS011;59881;36.722;-4.462;2024-01-10T03:46:07;0.50;;;0.47;;
60724;SDS011;59881;36.722;-4.462;2024-01-10T03:48:33;0.73;;;0.65;;
60724;SDS011;59881;36.722;-4.462;2024-01-10T03:50:58;1.15;;;1.05;;
60724;SDS011;59881;36.722;-4.462;2024-01-10T03:53:24;1.52;;;0.82;;
60724;SDS011;59881;36.722;-4.462;2024-01-10T03:55:50;1.58;;;0.82;;
60724;SDS011;59881;36.722;-4.462;2024-01-10T03:58:15;0.32;;;0.32;;
60724;SDS011;59881;36.722;-4.462;2024-01-10T04:00:41;1.25;;;1.02;;
60724;SDS011;59881;36.722;-4.462;2024-01-10T04:03:06;1.10;;;1.00;;
60724;SDS011;59881;36.722;-4.462;2024-01-10T04:05:32;1.08;;;0.80;;
60724;SDS011;59881;36.722;-4.462;2024-01-10T04:07:57;1.52;;;1.02;;
60724;SDS011;59881;36.722;-4.462;2024-01-10T04:10:23;1.00;;;0.90;;
60724;SDS011;59881;36.722;-4.462;2024-01-10T04:12:49;2.15;;;1.25;;
60724;SDS011;59881;36.722;-4.462;2024-01-10T04:15:15;1.23;;;1.00;;
60724;SDS011;59881;36.722;-4.462;2024-01-10T04:17:42;0.60;;;0.60;;
60724;SDS011;59881;36.722;-4.462;2024-01-10T04:20:08;0.68;;;0.68;;
60724;SDS011;59881;36.722;-4.462;2024-01-10T04:22:34;4.20;;;0.70;;
60724;SDS011;59881;36.722;-4.462;2024-01-10T04:25:00;1.58;;;0.85;;
60724;SDS011;59881;36.722;-4.462;2024-01-10T04:27:27;1.50;;;1.38;;
60724;SDS011;59881;36.722;-4.462;2024-01-10T04:29:52;2.00;;;1.25;;
60724;SDS011;59881;36.722;-4.462;2024-01-10T04:32:18;0.60;;;0.60;;
60724;SDS011;59881;36.722;-4.462;2024-01-10T04:34:44;2.00;;;1.25;;
60724;SDS011;59881;36.722;-4.462;2024-01-10T04:37:10;0.68;;;0.55;;
60724;SDS011;59881;36.722;-4.462;2024-01-10T04:39:36;1.67;;;1.35;;
60724;SDS011;59881;36.722;-4.462;2024-01-10T04:42:05;0.50;;;0.50;;
60724;SDS011;59881;36.722;-4.462;2024-01-10T04:44:31;1.15;;;1.05;;
60724;SDS011;59881;36.722;-4.462;2024-01-10T04:46:57;0.45;;;0.40;;
60724;SDS011;59881;36.722;-4.462;2024-01-10T04:49:22;1.00;;;0.50;;
60724;SDS011;59881;36.722;-4.462;2024-01-10T04:51:48;2.65;;;1.13;;
60724;SDS011;59881;36.722;-4.462;2024-01-10T04:54:15;0.80;;;0.60;;
60724;SDS011;59881;36.722;-4.462;2024-01-10T04:56:40;0.40;;;0.40;;
60724;SDS011;59881;36.722;-4.462;2024-01-10T04:59:06;1.85;;;1.10;;
60724;SDS011;59881;36.722;-4.462;2024-01-10T05:01:32;1.23;;;0.77;;
60724;SDS011;59881;36.722;-4.462;2024-01-10T05:03:57;1.27;;;0.95;;
60724;SDS011;59881;36.722;-4.462;2024-01-10T05:06:23;0.90;;;0.65;;
60724;SDS011;59881;36.722;-4.462;2024-01-10T05:08:49;1.10;;;0.68;;
60724;SDS011;59881;36.722;-4.462;2024-01-10T05:11:15;2.83;;;1.05;;
60724;SDS011;59881;36.722;-4.462;2024-01-10T05:13:42;1.00;;;0.90;;
60724;SDS011;59881;36.722;-4.462;2024-01-10T05:16:08;0.60;;;0.40;;
60724;SDS011;59881;36.722;-4.462;2024-01-10T05:18:34;2.03;;;0.90;;
60724;SDS011;59881;36.722;-4.462;2024-01-10T05:21:00;0.40;;;0.40;;
60724;SDS011;59881;36.722;-4.462;2024-01-10T05:23:26;0.35;;;0.35;;
60724;SDS011;59881;36.722;-4.462;2024-01-10T05:25:52;3.63;;;0.88;;
60724;SDS011;59881;36.722;-4.462;2024-01-10T05:28:18;0.57;;;0.52;;
60724;SDS011;59881;36.722;-4.462;2024-01-10T05:30:44;0.73;;;0.73;;
60724;SDS011;59881;36.722;-4.462;2024-01-10T05:33:09;0.70;;;0.47;;
60724;SDS011;59881;36.722;-4.462;2024-01-10T05:35:36;2.75;;;1.55;;
60724;SDS011;59881;36.722;-4.462;2024-01-10T05:38:03;2.83;;;1.75;;
60724;SDS011;59881;36.722;-4.462;2024-01-10T05:40:29;4.50;;;1.08;;
60724;SDS011;59881;36.722;-4.462;2024-01-10T05:42:57;2.95;;;0.68;;
60724;SDS011;59881;36.722;-4.462;2024-01-10T05:45:26;1.05;;;0.65;;
60724;SDS011;59881;36.722;-4.462;2024-01-10T05:47:53;2.25;;;1.00;;
60724;SDS011;59881;36.722;-4.462;2024-01-10T05:50:19;1.52;;;0.77;;
60724;SDS011;59881;36.722;-4.462;2024-01-10T05:52:45;0.85;;;0.57;;
60724;SDS011;59881;36.722;-4.462;2024-01-10T05:55:11;1.42;;;0.70;;
60724;SDS011;59881;36.722;-4.462;2024-01-10T05:57:36;0.47;;;0.47;;
60724;SDS011;59881;36.722;-4.462;2024-01-10T06:00:02;1.20;;;0.40;;
60724;SDS011;59881;36.722;-4.462;2024-01-10T06:02:30;1.15;;;0.77;;
60724;SDS011;59881;36.722;-4.462;2024-01-10T06:04:55;0.68;;;0.50;;
60724;SDS011;59881;36.722;-4.462;2024-01-10T06:07:21;1.73;;;0.95;;
60724;SDS011;59881;36.722;-4.462;2024-01-10T06:09:47;0.90;;;0.77;;
60724;SDS011;59881;36.722;-4.462;2024-01-10T06:12:12;2.08;;;1.05;;
60724;SDS011;59881;36.722;-4.462;2024-01-10T06:14:38;2.75;;;1.27;;
60724;SDS011;59881;36.722;-4.462;2024-01-10T06:17:04;0.47;;;0.47;;
60724;SDS011;59881;36.722;-4.462;2024-01-10T06:19:30;1.00;;;0.63;;
60724;SDS011;59881;36.722;-4.462;2024-01-10T06:21:58;3.58;;;0.70;;
60724;SDS011;59881;36.722;-4.462;2024-01-10T06:24:25;0.82;;;0.75;;
60724;SDS011;59881;36.722;-4.462;2024-01-10T06:26:51;1.23;;;0.68;;
60724;SDS011;59881;36.722;-4.462;2024-01-10T06:29:17;0.80;;;0.55;;
60724;SDS011;59881;36.722;-4.462;2024-01-10T06:31:43;0.30;;;0.30;;
60724;SDS011;59881;36.722;-4.462;2024-01-10T06:34:09;0.85;;;0.50;;
60724;SDS011;59881;36.722;-4.462;2024-01-10T06:36:35;1.67;;;0.60;;
60724;SDS011;59881;36.722;-4.462;2024-01-10T06:39:01;0.30;;;0.30;;
60724;SDS011;59881;36.722;-4.462;2024-01-10T06:41:26;0.45;;;0.45;;
60724;SDS011;59881;36.722;-4.462;2024-01-10T06:43:52;5.60;;;0.82;;
60724;SDS011;59881;36.722;-4.462;2024-01-10T06:46:19;1.08;;;0.50;;
60724;SDS011;59881;36.722;-4.462;2024-01-10T06:48:45;0.22;;;0.22;;
60724;SDS011;59881;36.722;-4.462;2024-01-10T06:51:14;0.28;;;0.25;;
60724;SDS011;59881;36.722;-4.462;2024-01-10T06:53:40;0.30;;;0.30;;
60724;SDS011;59881;36.722;-4.462;2024-01-10T06:56:06;0.28;;;0.28;;
60724;SDS011;59881;36.722;-4.462;2024-01-10T06:58:34;0.10;;;0.10;;
60724;SDS011;59881;36.722;-4.462;2024-01-10T07:01:00;0.25;;;0.25;;
60724;SDS011;59881;36.722;-4.462;2024-01-10T07:03:26;0.82;;;0.50;;
60724;SDS011;59881;36.722;-4.462;2024-01-10T07:05:51;0.40;;;0.40;;
60724;SDS011;59881;36.722;-4.462;2024-01-10T07:08:17;1.85;;;0.38;;
60724;SDS011;59881;36.722;-4.462;2024-01-10T07:10:43;0.50;;;0.50;;
60724;SDS011;59881;36.722;-4.462;2024-01-10T07:13:08;0.20;;;0.20;;
60724;SDS011;59881;36.722;-4.462;2024-01-10T07:15:34;0.25;;;0.25;;
60724;SDS011;59881;36.722;-4.462;2024-01-10T07:18:00;0.57;;;0.57;;
60724;SDS011;59881;36.722;-4.462;2024-01-10T07:20:25;0.43;;;0.43;;
60724;SDS011;59881;36.722;-4.462;2024-01-10T07:22:51;1.73;;;0.30;;
60724;SDS011;59881;36.722;-4.462;2024-01-10T07:25:17;1.65;;;0.65;;
60724;SDS011;59881;36.722;-4.462;2024-01-10T07:27:43;0.10;;;0.10;;
60724;SDS011;59881;36.722;-4.462;2024-01-10T07:30:09;0.63;;;0.43;;
60724;SDS011;59881;36.722;-4.462;2024-01-10T07:32:41;2.47;;;0.60;;
60724;SDS011;59881;36.722;-4.462;2024-01-10T07:35:11;0.10;;;0.10;;
60724;SDS011;59881;36.722;-4.462;2024-01-10T07:37:37;0.20;;;0.20;;
60724;SDS011;59881;36.722;-4.462;2024-01-10T07:40:03;0.15;;;0.15;;
60724;SDS011;59881;36.722;-4.462;2024-01-10T07:42:47;0.20;;;0.20;;
60724;SDS011;59881;36.722;-4.462;2024-01-10T07:45:13;0.60;;;0.52;;
60724;SDS011;59881;36.722;-4.462;2024-01-10T07:47:39;1.17;;;0.45;;
60724;SDS011;59881;36.722;-4.462;2024-01-10T07:50:08;0.70;;;0.63;;
60724;SDS011;59881;36.722;-4.462;2024-01-10T07:52:35;0.20;;;0.20;;
60724;SDS011;59881;36.722;-4.462;2024-01-10T07:55:01;0.95;;;0.55;;
60724;SDS011;59881;36.722;-4.462;2024-01-10T07:57:30;0.55;;;0.45;;
60724;SDS011;59881;36.722;-4.462;2024-01-10T07:59:56;0.20;;;0.20;;
60724;SDS011;59881;36.722;-4.462;2024-01-10T08:02:21;0.10;;;0.10;;
60724;SDS011;59881;36.722;-4.462;2024-01-10T08:04:47;0.20;;;0.20;;
60724;SDS011;59881;36.722;-4.462;2024-01-10T08:07:13;0.65;;;0.40;;
60724;SDS011;59881;36.722;-4.462;2024-01-10T08:09:39;0.10;;;0.10;;
60724;SDS011;59881;36.722;-4.462;2024-01-10T08:12:05;1.02;;;0.50;;
60724;SDS011;59881;36.722;-4.462;2024-01-10T08:14:30;0.70;;;0.35;;
60724;SDS011;59881;36.722;-4.462;2024-01-10T08:16:56;0.38;;;0.35;;
60724;SDS011;59881;36.722;-4.462;2024-01-10T08:19:25;0.38;;;0.20;;
60724;SDS011;59881;36.722;-4.462;2024-01-10T08:21:55;0.10;;;0.10;;
60724;SDS011;59881;36.722;-4.462;2024-01-10T08:24:21;0.10;;;0.10;;
60724;SDS011;59881;36.722;-4.462;2024-01-10T08:26:48;0.35;;;0.15;;
60724;SDS011;59881;36.722;-4.462;2024-01-10T08:29:20;0.13;;;0.13;;
60724;SDS011;59881;36.722;-4.462;2024-01-10T08:31:46;0.20;;;0.20;;
60724;SDS011;59881;36.722;-4.462;2024-01-10T08:34:13;0.10;;;0.10;;
60724;SDS011;59881;36.722;-4.462;2024-01-10T08:36:38;0.05;;;0.05;;
60724;SDS011;59881;36.722;-4.462;2024-01-10T08:39:04;0.43;;;0.28;;
60724;SDS011;59881;36.722;-4.462;2024-01-10T08:41:30;0.10;;;0.10;;
60724;SDS011;59881;36.722;-4.462;2024-01-10T08:43:56;0.30;;;0.30;;
60724;SDS011;59881;36.722;-4.462;2024-01-10T08:46:22;0.30;;;0.30;;
60724;SDS011;59881;36.722;-4.462;2024-01-10T08:48:49;0.08;;;0.08;;
60724;SDS011;59881;36.722;-4.462;2024-01-10T08:51:15;0.10;;;0.10;;
60724;SDS011;59881;36.722;-4.462;2024-01-10T08:53:44;0.10;;;0.10;;
60724;SDS011;59881;36.722;-4.462;2024-01-10T08:56:10;1.17;;;0.35;;
60724;SDS011;59881;36.722;-4.462;2024-01-10T08:58:36;0.10;;;0.10;;
60724;SDS011;59881;36.722;-4.462;2024-01-10T09:01:02;0.13;;;0.13;;
60724;SDS011;59881;36.722;-4.462;2024-01-10T09:03:30;0.20;;;0.20;;
60724;SDS011;59881;36.722;-4.462;2024-01-10T09:05:55;0.10;;;0.10;;
60724;SDS011;59881;36.722;-4.462;2024-01-10T09:08:22;0.10;;;0.10;;
60724;SDS011;59881;36.722;-4.462;2024-01-10T09:10:47;0.10;;;0.10;;
60724;SDS011;59881;36.722;-4.462;2024-01-10T09:13:14;0.15;;;0.15;;
60724;SDS011;59881;36.722;-4.462;2024-01-10T09:15:40;0.25;;;0.25;;
60724;SDS011;59881;36.722;-4.462;2024-01-10T09:18:06;0.10;;;0.10;;
60724;SDS011;59881;36.722;-4.462;2024-01-10T09:20:31;0.22;;;0.13;;
60724;SDS011;59881;36.722;-4.462;2024-01-10T09:22:57;0.22;;;0.15;;
60724;SDS011;59881;36.722;-4.462;2024-01-10T09:25:25;0.30;;;0.30;;
60724;SDS011;59881;36.722;-4.462;2024-01-10T09:27:51;0.10;;;0.10;;
60724;SDS011;59881;36.722;-4.462;2024-01-10T09:30:16;0.10;;;0.10;;
60724;SDS011;59881;36.722;-4.462;2024-01-10T09:32:43;0.40;;;0.30;;
60724;SDS011;59881;36.722;-4.462;2024-01-10T09:35:09;0.10;;;0.10;;
60724;SDS011;59881;36.722;-4.462;2024-01-10T09:37:35;0.13;;;0.13;;
60724;SDS011;59881;36.722;-4.462;2024-01-10T09:40:01;0.10;;;0.10;;
60724;SDS011;59881;36.722;-4.462;2024-01-10T09:42:26;0.10;;;0.10;;
60724;SDS011;59881;36.722;-4.462;2024-01-10T09:44:56;0.10;;;0.10;;
60724;SDS011;59881;36.722;-4.462;2024-01-10T09:47:22;0.30;;;0.22;;
60724;SDS011;59881;36.722;-4.462;2024-01-10T09:49:48;0.15;;;0.15;;
60724;SDS011;59881;36.722;-4.462;2024-01-10T09:52:24;0.10;;;0.10;;
60724;SDS011;59881;36.722;-4.462;2024-01-10T09:54:56;0.10;;;0.10;;
60724;SDS011;59881;36.722;-4.462;2024-01-10T09:57:23;0.32;;;0.10;;
60724;SDS011;59881;36.722;-4.462;2024-01-10T09:59:52;0.17;;;0.17;;
60724;SDS011;59881;36.722;-4.462;2024-01-10T10:02:21;0.20;;;0.20;;
60724;SDS011;59881;36.722;-4.462;2024-01-10T10:05:11;0.05;;;0.05;;
60724;SDS011;59881;36.722;-4.462;2024-01-10T10:07:46;0.10;;;0.10;;
60724;SDS011;59881;36.722;-4.462;2024-01-10T10:10:13;0.20;;;0.20;;
60724;SDS011;59881;36.722;-4.462;2024-01-10T10:12:47;1.55;;;0.20;;
60724;SDS011;59881;36.722;-4.462;2024-01-10T10:15:14;0.20;;;0.20;;
60724;SDS011;59881;36.722;-4.462;2024-01-10T10:17:42;0.10;;;0.10;;
60724;SDS011;59881;36.722;-4.462;2024-01-10T10:20:34;0.10;;;0.10;;
60724;SDS011;59881;36.722;-4.462;2024-01-10T10:23:07;0.10;;;0.10;;
60724;SDS011;59881;36.722;-4.462;2024-01-10T10:25:43;0.95;;;0.52;;
60724;SDS011;59881;36.722;-4.462;2024-01-10T10:28:09;0.22;;;0.22;;
60724;SDS011;59881;36.722;-4.462;2024-01-10T10:30:35;0.30;;;0.30;;
60724;SDS011;59881;36.722;-4.462;2024-01-10T10:33:01;0.20;;;0.20;;
60724;SDS011;59881;36.722;-4.462;2024-01-10T10:35:27;0.40;;;0.40;;
60724;SDS011;59881;36.722;-4.462;2024-01-10T10:37:53;0.20;;;0.20;;
60724;SDS011;59881;36.722;-4.462;2024-01-10T10:40:19;0.20;;;0.20;;
60724;SDS011;59881;36.722;-4.462;2024-01-10T10:42:56;0.05;;;0.05;;
60724;SDS011;59881;36.722;-4.462;2024-01-10T10:45:22;0.10;;;0.10;;
60724;SDS011;59881;36.722;-4.462;2024-01-10T10:47:53;0.40;;;0.28;;
60724;SDS011;59881;36.722;-4.462;2024-01-10T10:50:23;0.45;;;0.30;;
60724;SDS011;59881;36.722;-4.462;2024-01-10T10:52:51;0.20;;;0.20;;
60724;SDS011;59881;36.722;-4.462;2024-01-10T10:55:17;0.10;;;0.10;;
60724;SDS011;59881;36.722;-4.462;2024-01-10T10:57:47;0.10;;;0.10;;
60724;SDS011;59881;36.722;-4.462;2024-01-10T11:00:14;0.03;;;0.03;;
60724;SDS011;59881;36.722;-4.462;2024-01-10T11:02:41;0.10;;;0.10;;
60724;SDS011;59881;36.722;-4.462;2024-01-10T11:05:09;0.25;;;0.22;;
60724;SDS011;59881;36.722;-4.462;2024-01-10T11:07:35;0.40;;;0.28;;
60724;SDS011;59881;36.722;-4.462;2024-01-10T11:10:03;0.60;;;0.40;;
60724;SDS011;59881;36.722;-4.462;2024-01-10T11:12:38;0.20;;;0.20;;
60724;SDS011;59881;36.722;-4.462;2024-01-10T11:21:24;0.10;;;0.10;;
60724;SDS011;59881;36.722;-4.462;2024-01-10T11:23:59;0.20;;;0.20;;
60724;SDS011;59881;36.722;-4.462;2024-01-10T11:26:26;0.10;;;0.10;;
60724;SDS011;59881;36.722;-4.462;2024-01-10T11:28:51;0.05;;;0.05;;
60724;SDS011;59881;36.722;-4.462;2024-01-10T11:31:26;0.10;;;0.10;;
60724;SDS011;59881;36.722;-4.462;2024-01-10T11:33:55;0.25;;;0.25;;
60724;SDS011;59881;36.722;-4.462;2024-01-10T11:36:21;0.10;;;0.10;;
60724;SDS011;59881;36.722;-4.462;2024-01-10T11:41:25;0.00;;;0.00;;
60724;SDS011;59881;36.722;-4.462;2024-01-10T11:44:42;0.10;;;0.10;;
60724;SDS011;59881;36.722;-4.462;2024-01-10T11:46:53;0.20;;;0.20;;
60724;SDS011;59881;36.722;-4.462;2024-01-10T11:49:20;0.25;;;0.20;;
60724;SDS011;59881;36.722;-4.462;2024-01-10T11:51:48;0.10;;;0.10;;
60724;SDS011;59881;36.722;-4.462;2024-01-10T11:59:42;0.32;;;0.30;;
60724;SDS011;59881;36.722;-4.462;2024-01-10T12:02:12;0.03;;;0.03;;
60724;SDS011;59881;36.722;-4.462;2024-01-10T12:04:39;0.20;;;0.20;;
60724;SDS011;59881;36.722;-4.462;2024-01-10T12:07:06;0.15;;;0.15;;
60724;SDS011;59881;36.722;-4.462;2024-01-10T12:09:33;0.40;;;0.20;;
60724;SDS011;59881;36.722;-4.462;2024-01-10T12:12:01;0.20;;;0.20;;
60724;SDS011;59881;36.722;-4.462;2024-01-10T12:14:27;0.10;;;0.10;;
60724;SDS011;59881;36.722;-4.462;2024-01-10T12:16:54;0.20;;;0.20;;
60724;SDS011;59881;36.722;-4.462;2024-01-10T12:19:19;0.30;;;0.30;;
60724;SDS011;59881;36.722;-4.462;2024-01-10T12:21:45;0.10;;;0.10;;
60724;SDS011;59881;36.722;-4.462;2024-01-10T12:24:12;0.10;;;0.10;;
60724;SDS011;59881;36.722;-4.462;2024-01-10T12:26:47;0.20;;;0.20;;
60724;SDS011;59881;36.722;-4.462;2024-01-10T12:29:18;0.08;;;0.08;;
60724;SDS011;59881;36.722;-4.462;2024-01-10T12:31:47;0.22;;;0.22;;
60724;SDS011;59881;36.722;-4.462;2024-01-10T12:34:13;0.20;;;0.20;;
60724;SDS011;59881;36.722;-4.462;2024-01-10T12:36:40;0.10;;;0.10;;
60724;SDS011;59881;36.722;-4.462;2024-01-10T12:39:06;0.10;;;0.10;;
60724;SDS011;59881;36.722;-4.462;2024-01-10T12:41:32;0.10;;;0.10;;
60724;SDS011;59881;36.722;-4.462;2024-01-10T12:43:59;0.17;;;0.17;;
60724;SDS011;59881;36.722;-4.462;2024-01-10T12:46:29;0.10;;;0.10;;
60724;SDS011;59881;36.722;-4.462;2024-01-10T12:49:05;0.20;;;0.20;;
60724;SDS011;59881;36.722;-4.462;2024-01-10T12:51:32;0.10;;;0.10;;
60724;SDS011;59881;36.722;-4.462;2024-01-10T12:54:01;0.20;;;0.20;;
60724;SDS011;59881;36.722;-4.462;2024-01-10T12:56:29;0.10;;;0.10;;
60724;SDS011;59881;36.722;-4.462;2024-01-10T12:58:55;0.20;;;0.20;;
60724;SDS011;59881;36.722;-4.462;2024-01-10T13:01:22;0.20;;;0.17;;
60724;SDS011;59881;36.722;-4.462;2024-01-10T13:03:48;0.63;;;0.20;;
60724;SDS011;59881;36.722;-4.462;2024-01-10T13:06:14;0.32;;;0.28;;
60724;SDS011;59881;36.722;-4.462;2024-01-10T13:08:41;0.20;;;0.20;;
60724;SDS011;59881;36.722;-4.462;2024-01-10T13:11:07;0.17;;;0.17;;
60724;SDS011;59881;36.722;-4.462;2024-01-10T13:13:37;0.15;;;0.13;;
60724;SDS011;59881;36.722;-4.462;2024-01-10T13:16:03;0.17;;;0.17;;
60724;SDS011;59881;36.722;-4.462;2024-01-10T13:18:29;0.17;;;0.17;;
60724;SDS011;59881;36.722;-4.462;2024-01-10T13:20:55;0.10;;;0.10;;
60724;SDS011;59881;36.722;-4.462;2024-01-10T13:23:21;0.10;;;0.10;;
60724;SDS011;59881;36.722;-4.462;2024-01-10T13:25:48;0.22;;;0.15;;
60724;SDS011;59881;36.722;-4.462;2024-01-10T13:28:14;0.10;;;0.10;;
60724;SDS011;59881;36.722;-4.462;2024-01-10T13:30:40;0.10;;;0.10;;
60724;SDS011;59881;36.722;-4.462;2024-01-10T13:33:08;0.10;;;0.10;;
60724;SDS011;59881;36.722;-4.462;2024-01-10T13:35:34;0.10;;;0.10;;
60724;SDS011;59881;36.722;-4.462;2024-01-10T13:38:03;0.15;;;0.15;;
60724;SDS011;59881;36.722;-4.462;2024-01-10T13:40:30;0.15;;;0.15;;
60724;SDS011;59881;36.722;-4.462;2024-01-10T13:42:57;0.45;;;0.22;;
60724;SDS011;59881;36.722;-4.462;2024-01-10T13:45:23;0.22;;;0.22;;
60724;SDS011;59881;36.722;-4.462;2024-01-10T13:47:48;0.10;;;0.10;;
60724;SDS011;59881;36.722;-4.462;2024-01-10T13:50:14;1.08;;;0.52;;
60724;SDS011;59881;36.722;-4.462;2024-01-10T13:52:40;0.10;;;0.10;;
60724;SDS011;59881;36.722;-4.462;2024-01-10T13:55:05;0.13;;;0.13;;
60724;SDS011;59881;36.722;-4.462;2024-01-10T13:57:31;0.10;;;0.10;;
60724;SDS011;59881;36.722;-4.462;2024-01-10T14:00:00;0.55;;;0.30;;
60724;SDS011;59881;36.722;-4.462;2024-01-10T14:02:26;0.10;;;0.10;;
60724;SDS011;59881;36.722;-4.462;2024-01-10T14:04:52;0.47;;;0.47;;
60724;SDS011;59881;36.722;-4.462;2024-01-10T14:07:22;0.10;;;0.10;;
60724;SDS011;59881;36.722;-4.462;2024-01-10T14:09:49;0.10;;;0.10;;
60724;SDS011;59881;36.722;-4.462;2024-01-10T14:12:15;0.20;;;0.10;;
60724;SDS011;59881;36.722;-4.462;2024-01-10T14:14:40;0.40;;;0.30;;
60724;SDS011;59881;36.722;-4.462;2024-01-10T14:17:06;0.22;;;0.22;;
60724;SDS011;59881;36.722;-4.462;2024-01-10T14:19:32;0.38;;;0.38;;
60724;SDS011;59881;36.722;-4.462;2024-01-10T14:21:58;0.17;;;0.17;;
60724;SDS011;59881;36.722;-4.462;2024-01-10T14:24:24;0.00;;;0.00;;
60724;SDS011;59881;36.722;-4.462;2024-01-10T14:26:50;0.08;;;0.08;;
60724;SDS011;59881;36.722;-4.462;2024-01-10T14:29:15;0.10;;;0.10;;
60724;SDS011;59881;36.722;-4.462;2024-01-10T14:31:41;1.25;;;0.20;;
60724;SDS011;59881;36.722;-4.462;2024-01-10T14:34:07;0.10;;;0.10;;
60724;SDS011;59881;36.722;-4.462;2024-01-10T14:36:33;0.10;;;0.10;;
60724;SDS011;59881;36.722;-4.462;2024-01-10T14:38:59;0.10;;;0.10;;
60724;SDS011;59881;36.722;-4.462;2024-01-10T14:41:24;1.48;;;0.43;;
60724;SDS011;59881;36.722;-4.462;2024-01-10T14:43:50;0.30;;;0.30;;
60724;SDS011;59881;36.722;-4.462;2024-01-10T14:46:15;0.10;;;0.10;;
60724;SDS011;59881;36.722;-4.462;2024-01-10T14:48:41;0.25;;;0.25;;